createdAt,value
2018-01-25T00:00:22.463Z,10.23
2018-01-25T00:01:22.514Z,10.27
2018-01-25T00:02:22.368Z,10.25
2018-01-25T00:03:22.320Z,10.30
2018-01-25T00:04:22.274Z,10.23
2018-01-25T00:05:22.226Z,10.27
2018-01-25T00:06:22.180Z,10.27
2018-01-25T00:07:22.134Z,10.27
2018-01-25T00:08:22.086Z,10.26
2018-01-25T00:09:22.044Z,10.27
2018-01-25T00:10:21.994Z,10.11
2018-01-25T00:11:21.945Z,10.18
2018-01-25T00:12:21.906Z,10.22
2018-01-25T00:13:21.852Z,10.11
2018-01-25T00:14:21.806Z,10.18
2018-01-25T00:15:21.759Z,10.14
2018-01-25T00:16:21.712Z,10.08
2018-01-25T00:17:21.665Z,10.22
2018-01-25T00:18:21.620Z,10.17
2018-01-25T00:19:21.571Z,10.17
2018-01-25T00:20:21.525Z,10.14
2018-01-25T00:21:21.477Z,10.20
2018-01-25T00:22:21.431Z,10.17
2018-01-25T00:23:21.384Z,10.14
2018-01-25T00:24:21.338Z,10.15
2018-01-25T00:25:21.292Z,10.17
2018-01-25T00:26:21.244Z,10.15
2018-01-25T00:27:21.196Z,10.17
2018-01-25T00:28:21.150Z,10.15
2018-01-25T00:29:21.103Z,10.09
2018-01-25T00:30:21.058Z,10.12
2018-01-25T00:31:21.009Z,10.11
2018-01-25T00:32:20.963Z,10.08
2018-01-25T00:33:20.916Z,10.12
2018-01-25T00:34:20.870Z,10.01
2018-01-25T00:35:20.822Z,10.05
2018-01-25T00:36:20.776Z,10.07
2018-01-25T00:37:20.728Z,10.07
2018-01-25T00:38:20.732Z,9.99
2018-01-25T00:39:20.634Z,10.04
2018-01-25T00:40:20.588Z,9.91
2018-01-25T00:41:20.542Z,9.94
2018-01-25T00:42:20.494Z,9.96
2018-01-25T00:43:20.446Z,9.96
2018-01-25T00:44:20.400Z,9.87
2018-01-25T00:45:20.353Z,9.99
2018-01-25T00:46:20.308Z,9.94
2018-01-25T00:47:20.258Z,9.97
2018-01-25T00:48:20.212Z,9.99
2018-01-25T00:49:20.165Z,9.93
2018-01-25T00:50:20.120Z,9.96
2018-01-25T00:51:20.072Z,9.94
2018-01-25T00:52:20.026Z,10.05
2018-01-25T00:53:19.978Z,10.04
2018-01-25T00:54:19.932Z,10.01
2018-01-25T00:55:19.884Z,10.01
2018-01-25T00:56:19.838Z,10.11
2018-01-25T00:57:19.789Z,10.12
2018-01-25T00:58:19.743Z,10.25
2018-01-25T00:59:19.696Z,10.23
2018-01-25T01:00:19.650Z,10.36
2018-01-25T01:01:19.602Z,10.27
2018-01-25T01:02:19.557Z,10.32
2018-01-25T01:03:19.509Z,10.33
2018-01-25T01:04:19.463Z,10.42
2018-01-25T01:05:19.414Z,10.40
2018-01-25T01:06:19.373Z,10.41
2018-01-25T01:07:19.321Z,10.45
2018-01-25T01:08:19.277Z,10.52
2018-01-25T01:09:19.228Z,10.45
2018-01-25T01:10:19.184Z,10.51
2018-01-25T01:11:19.134Z,10.55
2018-01-25T01:12:19.087Z,10.59
2018-01-25T01:13:19.041Z,10.60
2018-01-25T01:14:18.994Z,10.56
2018-01-25T01:15:18.946Z,10.55
2018-01-25T01:16:18.899Z,10.60
2018-01-25T01:17:18.853Z,10.56
2018-01-25T01:18:18.907Z,10.51
2018-01-25T01:19:18.760Z,10.47
2018-01-25T01:20:18.713Z,10.42
2018-01-25T01:21:18.669Z,10.45
2018-01-25T01:22:18.627Z,10.42
2018-01-25T01:23:18.624Z,10.27
2018-01-25T01:24:18.525Z,10.29
2018-01-25T01:25:18.479Z,10.29
2018-01-25T01:26:18.432Z,10.26
2018-01-25T01:27:18.387Z,10.27
2018-01-25T01:28:18.340Z,10.29
2018-01-25T01:29:18.432Z,10.30
2018-01-25T01:30:18.258Z,10.34
2018-01-25T01:31:18.199Z,10.38
2018-01-25T01:32:18.153Z,10.40
2018-01-25T01:33:18.106Z,10.42
2018-01-25T01:34:18.060Z,10.51
2018-01-25T01:35:18.012Z,10.45
2018-01-25T01:36:17.966Z,10.48
2018-01-25T01:37:17.919Z,10.51
2018-01-25T01:39:17.825Z,10.52
2018-01-25T01:40:17.778Z,10.51
2018-01-25T01:41:17.733Z,10.52
2018-01-25T01:42:18.136Z,10.52
2018-01-25T01:43:17.639Z,10.48
2018-01-25T01:44:17.592Z,10.51
2018-01-25T01:45:18.045Z,10.55
2018-01-25T01:46:17.949Z,10.53
2018-01-25T01:48:17.906Z,10.51
2018-01-25T02:13:16.243Z,10.48
2018-01-25T02:14:16.201Z,10.59
2018-01-25T02:15:16.149Z,10.63
2018-01-25T02:16:16.103Z,10.64
2018-01-25T02:17:16.057Z,10.64
2018-01-25T02:18:16.010Z,10.64
2018-01-25T02:19:15.963Z,10.63
2018-01-25T02:20:15.919Z,10.67
2018-01-25T02:21:15.870Z,10.59
2018-01-25T02:22:15.825Z,10.63
2018-01-25T02:23:15.777Z,10.66
2018-01-25T02:24:15.730Z,10.64
2018-01-25T02:25:15.687Z,10.66
2018-01-25T02:26:15.645Z,10.67
2018-01-25T02:27:15.591Z,10.60
2018-01-25T02:28:15.546Z,10.55
2018-01-25T02:29:15.499Z,10.53
2018-01-25T02:30:15.456Z,10.47
2018-01-25T02:31:15.406Z,10.47
2018-01-25T02:32:15.360Z,10.41
2018-01-25T02:33:15.365Z,10.36
2018-01-25T02:34:15.259Z,10.34
2018-01-25T02:35:15.221Z,10.33
2018-01-25T02:36:15.175Z,10.32
2018-01-25T02:37:15.120Z,10.23
2018-01-25T02:38:15.072Z,10.23
2018-01-25T02:39:15.026Z,10.26
2018-01-25T02:40:14.983Z,10.22
2018-01-25T02:41:14.933Z,10.25
2018-01-25T02:42:14.891Z,10.23
2018-01-25T02:43:14.840Z,10.26
2018-01-25T02:44:14.793Z,10.27
2018-01-25T02:45:14.748Z,10.30
2018-01-25T02:46:14.704Z,10.45
2018-01-25T02:47:14.653Z,10.36
2018-01-25T02:48:14.610Z,10.32
2018-01-25T02:49:14.560Z,10.42
2018-01-25T02:50:14.513Z,10.51
2018-01-25T02:51:14.466Z,10.52
2018-01-25T02:52:14.420Z,10.47
2018-01-25T02:53:14.373Z,10.51
2018-01-25T02:54:14.327Z,10.53
2018-01-25T02:55:14.280Z,10.59
2018-01-25T02:56:14.234Z,10.59
2018-01-25T02:57:14.187Z,10.60
2018-01-25T02:58:14.144Z,10.55
2018-01-25T02:59:14.093Z,10.64
2018-01-25T03:00:14.046Z,10.64
2018-01-25T03:01:14.001Z,10.66
2018-01-25T03:02:13.954Z,10.68
2018-01-25T03:03:13.907Z,10.63
2018-01-25T03:04:13.859Z,10.70
2018-01-25T03:05:13.814Z,10.63
2018-01-25T03:06:13.768Z,10.56
2018-01-25T03:07:13.720Z,10.51
2018-01-25T03:08:13.674Z,10.51
2018-01-25T03:09:13.627Z,10.51
2018-01-25T03:10:13.582Z,10.42
2018-01-25T03:11:13.537Z,10.45
2018-01-25T03:12:13.487Z,10.47
2018-01-25T03:13:13.441Z,10.42
2018-01-25T03:14:13.395Z,10.38
2018-01-25T03:15:13.347Z,10.41
2018-01-25T03:16:13.301Z,10.42
2018-01-25T03:17:13.254Z,10.44
2018-01-25T03:18:13.208Z,10.32
2018-01-25T03:19:13.161Z,10.34
2018-01-25T03:20:13.114Z,10.33
2018-01-25T03:21:13.068Z,10.42
2018-01-25T03:22:13.022Z,10.40
2018-01-25T03:23:12.974Z,10.44
2018-01-25T03:24:12.929Z,10.38
2018-01-25T03:25:12.882Z,10.41
2018-01-25T03:26:12.841Z,10.40
2018-01-25T03:27:12.788Z,10.48
2018-01-25T03:28:12.747Z,10.41
2018-01-25T03:29:12.695Z,10.42
2018-01-25T03:30:12.649Z,10.47
2018-01-25T03:31:12.603Z,10.42
2018-01-25T03:32:12.598Z,10.40
2018-01-25T03:33:12.508Z,10.48
2018-01-25T03:34:12.462Z,10.51
2018-01-25T03:35:12.422Z,10.70
2018-01-25T03:36:12.369Z,10.64
2018-01-25T03:37:12.322Z,10.73
2018-01-25T03:38:12.276Z,10.76
2018-01-25T03:39:12.230Z,10.78
2018-01-25T03:40:12.182Z,10.76
2018-01-25T03:41:12.136Z,10.82
2018-01-25T03:42:12.089Z,10.84
2018-01-25T03:43:12.042Z,10.81
2018-01-25T03:44:11.996Z,10.84
2018-01-25T03:45:11.952Z,10.91
2018-01-25T03:46:11.904Z,10.94
2018-01-25T03:47:11.856Z,10.96
2018-01-25T03:48:11.810Z,10.94
2018-01-25T03:49:11.766Z,10.92
2018-01-25T03:51:11.672Z,10.91
2018-01-25T03:52:11.624Z,10.88
2018-01-25T03:53:11.578Z,10.79
2018-01-25T03:54:11.532Z,10.74
2018-01-25T03:55:11.485Z,10.73
2018-01-25T03:56:11.440Z,10.73
2018-01-25T03:57:11.392Z,10.66
2018-01-25T03:58:11.346Z,10.67
2018-01-25T03:59:11.299Z,10.63
2018-01-25T04:00:11.252Z,10.59
2018-01-25T04:01:11.206Z,10.48
2018-01-25T04:03:11.113Z,10.45
2018-01-25T04:04:11.067Z,10.51
2018-01-25T04:05:11.021Z,10.48
2018-01-25T04:06:10.981Z,10.52
2018-01-25T04:07:10.927Z,10.51
2018-01-25T04:08:10.881Z,10.51
2018-01-25T04:09:10.834Z,10.48
2018-01-25T04:10:10.788Z,10.51
2018-01-25T04:11:10.741Z,10.52
2018-01-25T04:12:10.695Z,10.51
2018-01-25T04:13:10.648Z,10.48
2018-01-25T04:14:10.652Z,10.52
2018-01-25T04:15:10.554Z,10.48
2018-01-25T04:16:10.509Z,10.47
2018-01-25T04:17:10.462Z,10.47
2018-01-25T04:18:10.416Z,10.47
2018-01-25T04:19:10.370Z,10.48
2018-01-25T04:20:10.322Z,10.44
2018-01-25T04:21:10.276Z,10.41
2018-01-25T04:22:10.228Z,10.48
2018-01-25T04:23:10.181Z,10.41
2018-01-25T04:24:10.134Z,10.41
2018-01-25T04:25:10.090Z,10.44
2018-01-25T04:26:10.044Z,10.51
2018-01-25T04:27:09.996Z,10.51
2018-01-25T04:28:09.950Z,10.55
2018-01-25T04:29:09.903Z,10.59
2018-01-25T04:30:09.857Z,10.70
2018-01-25T04:31:09.808Z,10.66
2018-01-25T04:32:09.763Z,10.79
2018-01-25T04:33:09.717Z,10.73
2018-01-25T04:34:09.673Z,10.81
2018-01-25T04:35:09.624Z,10.82
2018-01-25T04:36:09.578Z,10.94
2018-01-25T04:37:09.532Z,10.92
2018-01-25T04:38:09.485Z,10.96
2018-01-25T04:39:09.438Z,10.97
2018-01-25T04:40:09.392Z,10.99
2018-01-25T04:41:09.346Z,11.04
2018-01-25T04:42:09.300Z,11.10
2018-01-25T04:43:09.251Z,11.09
2018-01-25T04:44:09.209Z,11.06
2018-01-25T04:45:09.160Z,11.07
2018-01-25T04:46:09.116Z,11.09
2018-01-25T04:47:09.067Z,11.11
2018-01-25T04:48:09.020Z,11.11
2018-01-25T04:50:08.929Z,11.14
2018-01-25T04:51:08.881Z,11.11
2018-01-25T04:52:08.837Z,11.14
2018-01-25T04:53:08.790Z,11.15
2018-01-25T04:54:08.744Z,11.10
2018-01-25T04:55:08.697Z,11.10
2018-01-25T04:56:08.650Z,11.11
2018-01-25T04:57:08.604Z,11.15
2018-01-25T04:58:08.558Z,11.15
2018-01-25T04:59:08.511Z,11.17
2018-01-25T05:00:08.465Z,11.14
2018-01-25T05:01:08.418Z,11.19
2018-01-25T05:02:08.373Z,11.17
2018-01-25T05:03:08.326Z,11.15
2018-01-25T05:04:08.279Z,11.15
2018-01-25T05:05:08.234Z,11.17
2018-01-25T05:06:08.187Z,11.22
2018-01-25T05:07:08.142Z,11.14
2018-01-25T05:08:08.097Z,11.10
2018-01-25T05:09:08.048Z,11.27
2018-01-25T05:10:08.002Z,11.32
2018-01-25T05:11:07.956Z,11.17
2018-01-25T05:12:07.909Z,11.25
2018-01-25T05:13:07.864Z,11.24
2018-01-25T05:14:07.817Z,11.24
2018-01-25T05:15:07.770Z,11.29
2018-01-25T05:16:07.729Z,11.22
2018-01-25T05:17:07.678Z,11.22
2018-01-25T05:18:07.632Z,11.29
2018-01-25T05:19:07.585Z,11.28
2018-01-25T05:20:07.539Z,11.25
2018-01-25T05:21:07.498Z,11.17
2018-01-25T05:22:07.447Z,11.17
2018-01-25T05:23:07.400Z,11.14
2018-01-25T05:24:07.355Z,11.10
2018-01-25T05:25:07.308Z,11.18
2018-01-25T05:26:07.265Z,11.17
2018-01-25T05:27:07.216Z,11.11
2018-01-25T05:28:07.169Z,11.04
2018-01-25T05:29:07.125Z,11.10
2018-01-25T05:30:07.078Z,11.03
2018-01-25T05:31:07.031Z,11.07
2018-01-25T05:32:06.985Z,11.06
2018-01-25T05:33:06.939Z,11.07
2018-01-25T05:34:06.893Z,11.11
2018-01-25T05:35:06.846Z,11.10
2018-01-25T05:36:06.800Z,11.14
2018-01-25T05:37:06.754Z,11.18
2018-01-25T05:38:06.707Z,11.18
2018-01-25T05:39:06.661Z,11.21
2018-01-25T05:40:06.615Z,11.17
2018-01-25T05:41:06.568Z,11.18
2018-01-25T05:42:06.522Z,11.15
2018-01-25T05:43:06.475Z,11.18
2018-01-25T05:44:06.429Z,11.15
2018-01-25T05:45:06.387Z,11.17
2018-01-25T05:46:06.359Z,11.15
2018-01-25T05:47:06.296Z,11.15
2018-01-25T05:48:06.244Z,11.18
2018-01-25T05:49:06.198Z,11.19
2018-01-25T05:50:06.152Z,11.11
2018-01-25T05:51:06.105Z,11.09
2018-01-25T05:52:06.059Z,11.15
2018-01-25T05:53:06.013Z,11.15
2018-01-25T05:54:05.967Z,11.22
2018-01-25T05:55:05.922Z,11.33
2018-01-25T05:56:05.874Z,11.28
2018-01-25T05:57:05.828Z,11.25
2018-01-25T05:58:05.782Z,11.24
2018-01-25T05:59:05.735Z,11.25
2018-01-25T06:00:05.689Z,11.24
2018-01-25T06:01:05.643Z,11.29
2018-01-25T06:02:05.596Z,11.24
2018-01-25T06:03:05.550Z,11.24
2018-01-25T06:04:05.507Z,11.32
2018-01-25T06:05:05.459Z,11.33
2018-01-25T06:06:05.413Z,11.33
2018-01-25T06:07:05.366Z,11.28
2018-01-25T06:08:05.320Z,11.36
2018-01-25T06:09:05.276Z,11.32
2018-01-25T06:10:05.228Z,11.25
2018-01-25T06:11:05.182Z,11.33
2018-01-25T06:12:05.235Z,11.36
2018-01-25T06:13:05.089Z,11.33
2018-01-25T06:14:05.044Z,11.37
2018-01-25T06:15:04.999Z,11.37
2018-01-25T06:16:04.951Z,11.43
2018-01-25T06:17:04.904Z,11.33
2018-01-25T06:18:04.858Z,11.37
2018-01-25T06:19:04.812Z,11.39
2018-01-25T06:20:04.769Z,11.35
2018-01-25T06:21:04.720Z,11.36
2018-01-25T06:22:04.675Z,11.37
2018-01-25T06:23:04.628Z,11.37
2018-01-25T06:24:04.593Z,11.43
2018-01-25T06:25:04.536Z,11.42
2018-01-25T06:26:04.490Z,11.39
2018-01-25T06:27:04.442Z,11.37
2018-01-25T06:28:04.406Z,11.37
2018-01-25T06:29:04.353Z,11.37
2018-01-25T06:30:04.306Z,11.51
2018-01-25T06:31:04.260Z,11.43
2018-01-25T06:32:04.214Z,11.44
2018-01-25T06:33:04.168Z,11.43
2018-01-25T06:34:04.122Z,11.39
2018-01-25T06:35:04.076Z,11.49
2018-01-25T06:36:04.032Z,11.36
2018-01-25T06:37:03.985Z,11.35
2018-01-25T06:38:03.938Z,11.44
2018-01-25T06:39:03.892Z,11.49
2018-01-25T06:40:03.847Z,11.39
2018-01-25T06:41:03.802Z,11.46
2018-01-25T06:42:03.755Z,11.44
2018-01-25T06:43:03.709Z,11.46
2018-01-25T06:44:03.663Z,11.46
2018-01-25T06:45:03.617Z,11.43
2018-01-25T06:46:03.626Z,11.46
2018-01-25T06:47:03.525Z,11.43
2018-01-25T06:48:03.479Z,11.58
2018-01-25T06:49:03.434Z,11.49
2018-01-25T06:50:03.394Z,11.47
2018-01-25T06:51:03.342Z,11.60
2018-01-25T06:52:03.296Z,11.58
2018-01-25T06:53:03.250Z,11.55
2018-01-25T06:54:03.205Z,11.61
2018-01-25T06:55:03.158Z,11.60
2018-01-25T06:56:03.112Z,11.60
2018-01-25T06:57:03.067Z,11.64
2018-01-25T06:58:03.022Z,11.60
2018-01-25T06:59:02.975Z,11.61
2018-01-25T07:00:02.932Z,11.62
2018-01-25T07:01:02.884Z,11.65
2018-01-25T07:02:02.839Z,11.60
2018-01-25T07:03:02.792Z,11.58
2018-01-25T07:04:02.746Z,11.65
2018-01-25T07:05:02.701Z,11.64
2018-01-25T07:06:02.656Z,11.64
2018-01-25T07:07:02.609Z,11.61
2018-01-25T07:08:02.563Z,11.60
2018-01-25T07:09:02.518Z,11.67
2018-01-25T07:10:02.473Z,11.58
2018-01-25T07:11:02.426Z,11.65
2018-01-25T07:12:02.381Z,11.64
2018-01-25T07:13:02.334Z,11.73
2018-01-25T07:14:02.390Z,11.73
2018-01-25T07:15:02.242Z,11.69
2018-01-25T07:16:02.197Z,11.73
2018-01-25T07:17:02.153Z,11.76
2018-01-25T07:18:02.107Z,11.69
2018-01-25T07:19:02.061Z,11.73
2018-01-25T07:20:02.016Z,11.72
2018-01-25T07:21:01.970Z,11.72
2018-01-25T07:22:01.924Z,11.75
2018-01-25T07:23:01.877Z,11.73
2018-01-25T07:24:01.833Z,11.72
2018-01-25T07:25:01.788Z,11.72
2018-01-25T07:26:01.743Z,11.69
2018-01-25T07:27:01.696Z,11.72
2018-01-25T07:28:01.650Z,11.76
2018-01-25T07:29:01.605Z,11.76
2018-01-25T07:30:01.560Z,11.75
2018-01-25T07:31:01.513Z,11.78
2018-01-25T07:32:01.469Z,11.75
2018-01-25T07:33:01.423Z,11.75
2018-01-25T07:34:01.378Z,11.76
2018-01-25T07:35:01.332Z,11.79
2018-01-25T07:36:01.288Z,11.79
2018-01-25T07:37:01.248Z,11.79
2018-01-25T07:38:01.195Z,11.65
2018-01-25T07:39:01.150Z,11.82
2018-01-25T07:40:01.104Z,11.78
2018-01-25T07:41:01.058Z,11.72
2018-01-25T07:42:01.014Z,11.72
2018-01-25T07:43:00.968Z,11.72
2018-01-25T07:44:00.923Z,11.73
2018-01-25T07:45:00.877Z,11.80
2018-01-25T07:46:43.239Z,11.67
2018-01-25T07:47:43.195Z,11.70
2018-01-25T07:48:43.150Z,11.69
2018-01-25T07:49:43.104Z,11.58
2018-01-25T07:50:43.057Z,11.58
2018-01-25T07:51:43.012Z,11.65
2018-01-25T07:53:42.922Z,11.64
2018-01-25T07:57:42.748Z,11.52
2018-01-25T07:58:42.699Z,11.55
2018-01-25T07:59:42.648Z,11.49
2018-01-25T08:00:42.603Z,11.39
2018-01-25T08:01:42.559Z,11.44
2018-01-25T08:02:42.513Z,11.49
2018-01-25T08:03:42.467Z,11.40
2018-01-25T08:04:42.422Z,11.37
2018-01-25T08:05:42.377Z,11.27
2018-01-25T08:06:42.329Z,11.24
2018-01-25T08:07:42.284Z,11.29
2018-01-25T08:08:42.238Z,11.28
2018-01-25T08:09:42.193Z,11.14
2018-01-25T08:10:42.146Z,11.17
2018-01-25T08:12:34.514Z,11.14
2018-01-25T08:12:42.056Z,11.11
2018-01-25T08:13:42.011Z,11.14
2018-01-25T08:14:41.965Z,11.14
2018-01-25T08:15:41.918Z,11.14
2018-01-25T08:16:41.874Z,11.10
2018-01-25T08:17:41.828Z,11.10
2018-01-25T08:18:41.782Z,11.10
2018-01-25T08:19:41.736Z,11.11
2018-01-25T08:20:41.694Z,11.11
2018-01-25T08:21:41.643Z,11.15
2018-01-25T08:22:41.598Z,11.18
2018-01-25T08:23:41.553Z,11.15
2018-01-25T08:24:41.507Z,11.10
2018-01-25T08:25:41.462Z,11.17
2018-01-25T08:26:41.414Z,11.19
2018-01-25T08:27:41.370Z,11.15
2018-01-25T08:28:41.325Z,11.27
2018-01-25T08:29:41.295Z,11.29
2018-01-25T08:30:41.233Z,11.22
2018-01-25T08:31:41.186Z,11.24
2018-01-25T08:32:41.142Z,11.29
2018-01-25T08:33:41.096Z,11.29
2018-01-25T08:34:41.049Z,11.29
2018-01-25T08:35:41.004Z,11.35
2018-01-25T08:36:40.994Z,11.33
2018-01-25T08:37:40.914Z,11.29
2018-01-25T08:38:40.867Z,11.40
2018-01-25T08:39:40.822Z,11.37
2018-01-25T08:40:40.777Z,11.39
2018-01-25T08:41:40.731Z,11.37
2018-01-25T08:42:40.685Z,11.35
2018-01-25T08:43:40.640Z,11.40
2018-01-25T08:44:40.594Z,11.33
2018-01-25T08:45:40.549Z,11.39
2018-01-25T08:46:40.503Z,11.39
2018-01-25T08:47:40.458Z,11.29
2018-01-25T08:48:40.412Z,11.40
2018-01-25T08:49:40.366Z,11.37
2018-01-25T08:50:40.320Z,11.28
2018-01-25T08:51:40.275Z,11.40
2018-01-25T08:52:40.230Z,11.35
2018-01-25T08:53:40.185Z,11.33
2018-01-25T08:54:40.138Z,11.29
2018-01-25T08:55:40.093Z,11.33
2018-01-25T08:56:40.048Z,11.29
2018-01-25T08:57:40.003Z,11.37
2018-01-25T08:58:39.956Z,11.36
2018-01-25T08:59:39.911Z,11.19
2018-01-25T09:00:39.865Z,11.36
2018-01-25T09:01:39.820Z,11.40
2018-01-25T09:02:39.772Z,11.22
2018-01-25T09:03:39.728Z,11.24
2018-01-25T09:04:39.681Z,11.33
2018-01-25T09:05:39.637Z,11.32
2018-01-25T09:06:39.591Z,11.28
2018-01-25T09:07:39.545Z,11.33
2018-01-25T09:08:39.499Z,11.35
2018-01-25T09:09:39.490Z,11.33
2018-01-25T09:10:39.408Z,11.33
2018-01-25T09:11:39.362Z,11.42
2018-01-25T09:12:39.327Z,11.35
2018-01-25T09:13:39.327Z,11.36
2018-01-25T09:14:39.225Z,11.42
2018-01-25T09:15:39.180Z,11.42
2018-01-25T09:16:39.141Z,11.49
2018-01-25T09:17:39.587Z,11.47
2018-01-25T09:18:39.443Z,11.47
2018-01-25T09:19:39.448Z,11.60
2018-01-25T09:39:38.240Z,12.02
2018-01-25T09:41:38.151Z,11.94
2018-01-25T09:43:37.909Z,12.01
2018-01-25T09:44:37.969Z,11.98
2018-01-25T09:45:37.821Z,11.88
2018-01-25T09:46:37.776Z,11.94
2018-01-25T09:47:37.730Z,11.94
2018-01-25T09:48:37.686Z,11.88
2018-01-25T09:49:37.640Z,11.79
2018-01-25T09:50:37.593Z,11.78
2018-01-25T09:51:37.563Z,11.90
2018-01-25T09:52:37.507Z,11.88
2018-01-25T09:53:37.459Z,11.79
2018-01-25T09:54:37.412Z,11.83
2018-01-25T09:55:37.423Z,11.88
2018-01-25T09:56:37.323Z,11.83
2018-01-25T09:57:37.278Z,11.86
2018-01-25T09:58:37.232Z,11.79
2018-01-25T09:59:37.191Z,11.80
2018-01-25T10:00:37.142Z,11.95
2018-01-25T10:01:37.097Z,11.94
2018-01-25T10:02:37.051Z,11.91
2018-01-25T10:03:37.005Z,12.01
2018-01-25T10:04:36.962Z,11.96
2018-01-25T10:05:36.916Z,11.98
2018-01-25T10:06:36.870Z,11.99
2018-01-25T10:07:36.828Z,12.02
2018-01-25T10:08:36.780Z,12.01
2018-01-25T10:09:36.736Z,12.02
2018-01-25T10:10:36.690Z,12.05
2018-01-25T10:11:36.645Z,12.07
2018-01-25T10:12:36.601Z,12.05
2018-01-25T10:13:36.556Z,12.02
2018-01-25T10:14:36.510Z,12.10
2018-01-25T10:15:36.467Z,12.12
2018-01-25T10:16:36.420Z,12.05
2018-01-25T10:17:36.375Z,12.04
2018-01-25T10:18:36.329Z,12.01
2018-01-25T10:19:36.284Z,12.07
2018-01-25T10:20:36.240Z,12.04
2018-01-25T10:21:36.195Z,12.02
2018-01-25T10:22:36.148Z,12.04
2018-01-25T10:23:36.104Z,12.01
2018-01-25T10:24:36.059Z,12.05
2018-01-25T10:25:36.014Z,12.05
2018-01-25T10:26:35.969Z,12.05
2018-01-25T10:27:35.924Z,12.05
2018-01-25T10:28:35.879Z,12.09
2018-01-25T10:29:35.837Z,12.09
2018-01-25T10:30:35.788Z,12.07
2018-01-25T10:31:35.744Z,12.07
2018-01-25T10:32:35.698Z,12.10
2018-01-25T10:33:35.654Z,12.05
2018-01-25T10:34:35.608Z,12.04
2018-01-25T10:35:35.563Z,11.99
2018-01-25T10:36:35.528Z,12.04
2018-01-25T10:37:35.473Z,12.09
2018-01-25T10:38:35.426Z,12.05
2018-01-25T10:39:35.382Z,12.14
2018-01-25T10:40:35.338Z,12.20
2018-01-25T10:41:35.293Z,12.31
2018-01-25T10:42:35.248Z,12.24
2018-01-25T10:43:35.203Z,12.35
2018-01-25T10:44:35.158Z,12.45
2018-01-25T10:45:35.113Z,12.49
2018-01-25T10:46:35.067Z,12.46
2018-01-25T10:47:35.043Z,12.45
2018-01-25T10:48:34.979Z,12.38
2018-01-25T10:49:34.936Z,12.46
2018-01-25T10:50:34.891Z,12.38
2018-01-25T10:51:34.845Z,12.47
2018-01-25T10:52:34.800Z,12.47
2018-01-25T10:53:34.805Z,12.50
2018-01-25T10:54:34.709Z,12.38
2018-01-25T10:55:34.666Z,12.46
2018-01-25T10:56:34.623Z,12.46
2018-01-25T10:57:34.577Z,12.52
2018-01-25T10:58:34.632Z,12.49
2018-01-25T10:59:34.487Z,12.56
2018-01-25T11:00:34.443Z,12.65
2018-01-25T11:01:34.399Z,12.60
2018-01-25T11:02:34.354Z,12.74
2018-01-25T11:03:34.347Z,12.77
2018-01-25T11:04:34.264Z,12.78
2018-01-25T11:05:34.221Z,12.77
2018-01-25T11:06:34.176Z,12.89
2018-01-25T11:07:34.185Z,12.95
2018-01-25T11:08:34.088Z,12.85
2018-01-25T11:09:34.045Z,12.97
2018-01-25T11:10:34.000Z,12.92
2018-01-25T11:11:33.955Z,12.93
2018-01-25T11:12:33.912Z,12.85
2018-01-25T11:13:33.875Z,12.95
2018-01-25T11:14:33.870Z,12.86
2018-01-25T11:15:33.777Z,12.93
2018-01-25T11:16:33.735Z,12.90
2018-01-25T11:17:33.691Z,12.92
2018-01-25T11:18:33.646Z,12.78
2018-01-25T11:19:33.602Z,12.83
2018-01-25T11:20:33.560Z,12.82
2018-01-25T11:21:33.514Z,12.75
2018-01-25T11:22:33.469Z,12.72
2018-01-25T11:23:33.425Z,12.70
2018-01-25T11:24:33.381Z,12.72
2018-01-25T11:25:33.337Z,12.64
2018-01-25T11:26:33.291Z,12.62
2018-01-25T11:27:33.248Z,12.52
2018-01-25T11:28:33.204Z,12.52
2018-01-25T11:29:33.159Z,12.49
2018-01-25T11:30:33.118Z,12.52
2018-01-25T11:31:33.070Z,12.52
2018-01-25T11:32:33.025Z,12.50
2018-01-25T11:33:32.981Z,12.53
2018-01-25T11:34:32.934Z,12.45
2018-01-25T11:35:32.891Z,12.39
2018-01-25T11:36:32.847Z,12.50
2018-01-25T11:37:32.804Z,12.45
2018-01-25T11:38:32.757Z,12.49
2018-01-25T11:39:32.721Z,12.39
2018-01-25T11:40:32.668Z,12.41
2018-01-25T11:41:32.622Z,12.46
2018-01-25T11:42:32.578Z,12.42
2018-01-25T11:43:32.534Z,12.41
2018-01-25T11:44:32.490Z,12.50
2018-01-25T11:45:32.445Z,12.52
2018-01-25T11:46:32.399Z,12.50
2018-01-25T11:47:32.354Z,12.50
2018-01-25T11:48:32.311Z,12.54
2018-01-25T11:49:32.267Z,12.50
2018-01-25T11:50:32.223Z,12.52
2018-01-25T11:51:32.177Z,12.49
2018-01-25T11:52:32.140Z,12.46
2018-01-25T11:53:32.087Z,12.47
2018-01-25T11:54:32.043Z,12.50
2018-01-25T11:55:31.999Z,12.47
2018-01-25T11:56:31.954Z,12.49
2018-01-25T11:57:31.909Z,12.39
2018-01-25T11:58:31.863Z,12.50
2018-01-25T11:59:31.819Z,12.37
2018-01-25T12:00:31.775Z,12.38
2018-01-25T12:01:31.732Z,12.37
2018-01-25T12:02:31.686Z,12.32
2018-01-25T12:03:31.641Z,12.31
2018-01-25T12:04:31.596Z,12.27
2018-01-25T12:05:31.552Z,12.31
2018-01-25T12:06:31.505Z,12.32
2018-01-25T12:07:31.462Z,12.32
2018-01-25T12:08:31.417Z,12.27
2018-01-25T12:09:31.377Z,12.45
2018-01-25T12:10:31.333Z,12.31
2018-01-25T12:11:31.282Z,12.31
2018-01-25T12:12:31.239Z,12.35
2018-01-25T12:13:31.193Z,12.39
2018-01-25T12:14:31.148Z,12.39
2018-01-25T12:15:31.104Z,12.37
2018-01-25T12:16:31.060Z,12.37
2018-01-25T12:17:31.016Z,12.38
2018-01-25T12:18:30.970Z,12.46
2018-01-25T12:19:30.925Z,12.37
2018-01-25T12:20:30.881Z,12.35
2018-01-25T12:21:30.837Z,12.46
2018-01-25T12:22:30.791Z,12.49
2018-01-25T12:23:30.749Z,12.39
2018-01-25T12:24:30.702Z,12.47
2018-01-25T12:25:30.658Z,12.46
2018-01-25T12:26:30.613Z,12.39
2018-01-25T12:27:30.571Z,12.37
2018-01-25T12:28:30.524Z,12.38
2018-01-25T12:29:30.479Z,12.39
2018-01-25T12:30:30.434Z,12.42
2018-01-25T12:31:30.390Z,12.41
2018-01-25T12:32:30.349Z,12.31
2018-01-25T12:33:30.302Z,12.28
2018-01-25T12:34:30.255Z,12.29
2018-01-25T12:35:30.210Z,12.31
2018-01-25T12:36:30.166Z,12.24
2018-01-25T12:37:30.122Z,12.21
2018-01-25T12:38:30.527Z,12.23
2018-01-25T12:39:30.032Z,12.16
2018-01-25T12:40:30.438Z,12.12
2018-01-25T12:41:30.344Z,12.17
2018-01-25T12:42:30.196Z,12.04
2018-01-25T12:43:30.103Z,12.10
2018-01-25T12:44:30.108Z,12.12
2018-01-25T12:45:30.015Z,12.14
2018-01-25T12:46:29.868Z,12.10
2018-01-25T12:47:29.773Z,12.04
2018-01-25T12:48:29.682Z,12.04
2018-01-25T12:49:29.684Z,12.02
2018-01-25T12:50:29.589Z,12.05
2018-01-25T12:51:29.494Z,11.99
2018-01-25T12:52:29.499Z,12.04
2018-01-25T12:53:29.404Z,12.05
2018-01-25T12:54:29.359Z,12.02
2018-01-25T12:55:29.314Z,12.05
2018-01-25T12:56:29.269Z,12.04
2018-01-25T12:57:29.225Z,12.12
2018-01-25T12:58:29.179Z,12.04
2018-01-25T12:59:29.134Z,12.07
2018-01-25T13:00:29.088Z,12.07
2018-01-25T13:01:29.045Z,12.07
2018-01-25T13:02:28.999Z,12.05
2018-01-25T13:03:28.956Z,12.05
2018-01-25T13:04:29.010Z,12.04
2018-01-25T13:05:28.867Z,12.02
2018-01-25T13:06:28.820Z,12.09
2018-01-25T13:07:28.775Z,12.02
2018-01-25T13:08:28.731Z,12.12
2018-01-25T13:09:28.686Z,12.12
2018-01-25T13:10:28.640Z,12.05
2018-01-25T13:11:28.594Z,12.07
2018-01-25T13:12:28.550Z,12.05
2018-01-25T13:13:28.506Z,12.07
2018-01-25T13:14:28.460Z,12.04
2018-01-25T13:15:28.416Z,12.04
2018-01-25T13:16:28.371Z,12.09
2018-01-25T13:17:28.326Z,12.07
2018-01-25T13:18:28.283Z,12.02
2018-01-25T13:19:28.237Z,12.04
2018-01-25T13:20:28.191Z,11.98
2018-01-25T13:21:28.146Z,11.99
2018-01-25T13:22:28.101Z,11.98
2018-01-25T13:23:28.056Z,11.98
2018-01-25T13:24:28.013Z,12.04
2018-01-25T13:25:27.967Z,12.02
2018-01-25T13:26:27.920Z,11.99
2018-01-25T13:27:27.876Z,12.05
2018-01-25T13:28:27.832Z,12.04
2018-01-25T13:29:27.787Z,12.05
2018-01-25T13:30:27.742Z,12.01
2018-01-25T13:31:27.697Z,12.05
2018-01-25T13:32:27.652Z,12.05
2018-01-25T13:33:27.608Z,12.07
2018-01-25T13:34:27.561Z,12.05
2018-01-25T13:35:27.517Z,12.05
2018-01-25T13:36:27.473Z,12.02
2018-01-25T13:37:27.427Z,12.09
2018-01-25T13:38:27.382Z,12.10
2018-01-25T13:39:27.345Z,12.10
2018-01-25T13:40:27.342Z,12.09
2018-01-25T13:41:27.250Z,12.13
2018-01-25T13:42:27.203Z,12.12
2018-01-25T13:43:27.157Z,12.04
2018-01-25T13:44:27.114Z,12.04
2018-01-25T13:45:27.170Z,12.02
2018-01-25T13:46:27.025Z,12.12
2018-01-25T13:47:26.979Z,12.04